sensor_id;sensor_type;location;lat;lon;timestamp;pressure;altitude;pressure_sealevel;temperature;humidity
34370;BME280;20635;55.812;37.560;2023-06-10T00:02:07;99905.63;;;25.32;46.85
34370;BME280;20635;55.812;37.560;2023-06-10T00:04:33;99902.84;;;25.32;46.82
34370;BME280;20635;55.812;37.560;2023-06-10T00:06:59;99892.78;;;25.31;46.90
34370;BME280;20635;55.812;37.560;2023-06-10T00:09:25;99901.69;;;25.33;47.08
34370;BME280;20635;55.812;37.560;2023-06-10T00:11:52;99903.66;;;25.33;46.95
34370;BME280;20635;55.812;37.560;2023-06-10T00:14:19;99895.25;;;25.33;46.88
34370;BME280;20635;55.812;37.560;2023-06-10T00:16:45;99905.63;;;25.32;46.86
34370;BME280;20635;55.812;37.560;2023-06-10T00:19:11;99903.66;;;25.33;46.85
34370;BME280;20635;55.812;37.560;2023-06-10T00:21:39;99907.28;;;25.33;46.99
34370;BME280;20635;55.812;37.560;2023-06-10T00:24:07;99912.91;;;25.33;46.85
34370;BME280;20635;55.812;37.560;2023-06-10T00:26:35;99910.91;;;25.34;46.80
34370;BME280;20635;55.812;37.560;2023-06-10T00:29:01;99918.50;;;25.33;46.77
34370;BME280;20635;55.812;37.560;2023-06-10T00:31:27;99921.31;;;25.33;46.93
34370;BME280;20635;55.812;37.560;2023-06-10T00:33:53;99917.34;;;25.34;46.63
34370;BME280;20635;55.812;37.560;2023-06-10T00:36:19;99926.91;;;25.33;46.90
34370;BME280;20635;55.812;37.560;2023-06-10T00:38:44;99924.94;;;25.34;46.67
34370;BME280;20635;55.812;37.560;2023-06-10T00:41:10;99931.38;;;25.34;46.83
34370;BME280;20635;55.812;37.560;2023-06-10T00:43:36;99931.38;;;25.34;46.75
34370;BME280;20635;55.812;37.560;2023-06-10T00:46:02;99938.13;;;25.33;46.68
34370;BME280;20635;55.812;37.560;2023-06-10T00:48:28;99941.75;;;25.34;46.53
34370;BME280;20635;55.812;37.560;2023-06-10T00:50:56;99938.13;;;25.33;46.63
34370;BME280;20635;55.812;37.560;2023-06-10T00:53:22;99942.94;;;25.33;46.70
34370;BME280;20635;55.812;37.560;2023-06-10T00:55:48;99940.94;;;25.33;46.64
34370;BME280;20635;55.812;37.560;2023-06-10T00:58:14;99944.56;;;25.34;46.83
34370;BME280;20635;55.812;37.560;2023-06-10T01:00:41;99938.13;;;25.33;46.58
34370;BME280;20635;55.812;37.560;2023-06-10T01:03:06;99949.34;;;25.33;46.59
34370;BME280;20635;55.812;37.560;2023-06-10T01:05:36;99947.72;;;25.32;46.62
34370;BME280;20635;55.812;37.560;2023-06-10T01:13:25;99964.53;;;25.32;46.54
34370;BME280;20635;55.812;37.560;2023-06-10T01:15:57;99956.94;;;25.33;46.43
34370;BME280;20635;55.812;37.560;2023-06-10T01:18:23;99964.53;;;25.32;46.47
34370;BME280;20635;55.812;37.560;2023-06-10T01:20:49;99969.00;;;25.33;46.50
34370;BME280;20635;55.812;37.560;2023-06-10T01:23:15;99973.78;;;25.33;46.42
34370;BME280;20635;55.812;37.560;2023-06-10T01:25:43;99974.59;;;25.33;46.44
34370;BME280;20635;55.812;37.560;2023-06-10T01:28:21;99983.03;;;25.33;46.49
34370;BME280;20635;55.812;37.560;2023-06-10T01:33:22;99978.56;;;25.32;46.48
34370;BME280;20635;55.812;37.560;2023-06-10T01:35:52;99984.19;;;25.32;46.38
34370;BME280;20635;55.812;37.560;2023-06-10T01:38:18;99992.59;;;25.32;46.37
34370;BME280;20635;55.812;37.560;2023-06-10T01:40:45;99993.09;;;25.34;46.18
34370;BME280;20635;55.812;37.560;2023-06-10T01:43:11;99994.25;;;25.33;46.42
34370;BME280;20635;55.812;37.560;2023-06-10T01:45:38;100000.69;;;25.34;46.27
34370;BME280;20635;55.812;37.560;2023-06-10T01:48:04;99994.25;;;25.33;46.31
34370;BME280;20635;55.812;37.560;2023-06-10T01:50:30;99995.06;;;25.34;46.28
34370;BME280;20635;55.812;37.560;2023-06-10T01:52:57;99995.41;;;25.32;46.32
34370;BME280;20635;55.812;37.560;2023-06-10T01:55:22;100012.22;;;25.32;46.32
34370;BME280;20635;55.812;37.560;2023-06-10T01:57:48;100008.28;;;25.33;46.16
34370;BME280;20635;55.812;37.560;2023-06-10T02:00:14;100006.63;;;25.32;46.19
34370;BME280;20635;55.812;37.560;2023-06-10T02:02:44;100011.06;;;25.33;46.10
34370;BME280;20635;55.812;37.560;2023-06-10T02:05:09;100005.47;;;25.33;46.24
34370;BME280;20635;55.812;37.560;2023-06-10T02:07:35;100015.88;;;25.33;46.03
34370;BME280;20635;55.812;37.560;2023-06-10T02:10:01;100023.13;;;25.34;46.10
34370;BME280;20635;55.812;37.560;2023-06-10T02:12:28;100015.03;;;25.32;46.11
34370;BME280;20635;55.812;37.560;2023-06-10T02:14:54;100017.84;;;25.32;45.98
34370;BME280;20635;55.812;37.560;2023-06-10T02:17:19;100015.03;;;25.32;46.12
34370;BME280;20635;55.812;37.560;2023-06-10T02:19:45;100023.44;;;25.32;46.21
34370;BME280;20635;55.812;37.560;2023-06-10T02:22:21;100022.63;;;25.32;46.01
34370;BME280;20635;55.812;37.560;2023-06-10T02:24:47;100021.81;;;25.31;45.99
34370;BME280;20635;55.812;37.560;2023-06-10T02:27:13;100031.88;;;25.32;46.00
34370;BME280;20635;55.812;37.560;2023-06-10T02:29:38;100024.59;;;25.31;45.96
34370;BME280;20635;55.812;37.560;2023-06-10T02:32:04;100026.25;;;25.32;45.98
34370;BME280;20635;55.812;37.560;2023-06-10T02:34:30;100025.44;;;25.32;46.14
34370;BME280;20635;55.812;37.560;2023-06-10T02:36:57;100024.59;;;25.31;46.15
34370;BME280;20635;55.812;37.560;2023-06-10T02:39:23;100033.03;;;25.31;46.06
34370;BME280;20635;55.812;37.560;2023-06-10T02:41:50;100029.06;;;25.32;46.17
34370;BME280;20635;55.812;37.560;2023-06-10T02:44:17;100030.22;;;25.31;46.03
34370;BME280;20635;55.812;37.560;2023-06-10T02:46:44;100037.47;;;25.32;46.16
34370;BME280;20635;55.812;37.560;2023-06-10T02:51:36;100041.44;;;25.31;46.08
34370;BME280;20635;55.812;37.560;2023-06-10T02:54:03;100039.47;;;25.32;45.94
34370;BME280;20635;55.812;37.560;2023-06-10T02:56:29;100047.06;;;25.31;46.03
34370;BME280;20635;55.812;37.560;2023-06-10T02:58:58;100047.06;;;25.31;46.00
34370;BME280;20635;55.812;37.560;2023-06-10T03:01:26;100048.69;;;25.32;46.04
34370;BME280;20635;55.812;37.560;2023-06-10T03:04:05;100043.09;;;25.32;45.98
34370;BME280;20635;55.812;37.560;2023-06-10T03:06:31;100043.09;;;25.32;45.93
34370;BME280;20635;55.812;37.560;2023-06-10T03:09:11;100043.91;;;25.33;45.96
34370;BME280;20635;55.812;37.560;2023-06-10T03:11:39;100041.94;;;25.33;45.97
34370;BME280;20635;55.812;37.560;2023-06-10T03:14:05;100040.78;;;25.34;45.78
34370;BME280;20635;55.812;37.560;2023-06-10T03:16:31;100046.38;;;25.34;45.86
34370;BME280;20635;55.812;37.560;2023-06-10T03:18:58;100046.38;;;25.34;45.85
34370;BME280;20635;55.812;37.560;2023-06-10T03:21:24;100045.56;;;25.34;45.87
34370;BME280;20635;55.812;37.560;2023-06-10T03:23:50;100052.00;;;25.34;45.75
34370;BME280;20635;55.812;37.560;2023-06-10T03:26:16;100049.19;;;25.34;45.73
34370;BME280;20635;55.812;37.560;2023-06-10T03:28:44;100050.03;;;25.35;45.85
34370;BME280;20635;55.812;37.560;2023-06-10T03:31:10;100049.19;;;25.34;45.78
34370;BME280;20635;55.812;37.560;2023-06-10T03:33:36;100051.16;;;25.34;45.85
34370;BME280;20635;55.812;37.560;2023-06-10T03:36:03;100046.38;;;25.34;45.75
34370;BME280;20635;55.812;37.560;2023-06-10T03:38:29;100055.66;;;25.35;45.73
34370;BME280;20635;55.812;37.560;2023-06-10T03:40:55;100062.38;;;25.34;45.76
34370;BME280;20635;55.812;37.560;2023-06-10T03:43:21;100055.66;;;25.35;45.72
34370;BME280;20635;55.812;37.560;2023-06-10T03:45:48;100061.56;;;25.33;45.79
34370;BME280;20635;55.812;37.560;2023-06-10T03:48:15;100055.97;;;25.33;45.68
34370;BME280;20635;55.812;37.560;2023-06-10T03:50:46;100063.22;;;25.34;45.65
34370;BME280;20635;55.812;37.560;2023-06-10T03:53:14;100065.19;;;25.34;45.72
34370;BME280;20635;55.812;37.560;2023-06-10T03:55:41;100067.69;;;25.35;45.82
34370;BME280;20635;55.812;37.560;2023-06-10T03:58:07;100066.88;;;25.35;45.63
34370;BME280;20635;55.812;37.560;2023-06-10T04:00:33;100063.22;;;25.34;45.73
34370;BME280;20635;55.812;37.560;2023-06-10T04:03:07;100062.38;;;25.34;45.61
34370;BME280;20635;55.812;37.560;2023-06-10T04:05:38;100063.22;;;25.34;45.68
34370;BME280;20635;55.812;37.560;2023-06-10T04:08:04;100069.69;;;25.35;45.47
34370;BME280;20635;55.812;37.560;2023-06-10T04:10:30;100074.44;;;25.34;45.68
34370;BME280;20635;55.812;37.560;2023-06-10T04:12:56;100079.22;;;25.34;45.59
34370;BME280;20635;55.812;37.560;2023-06-10T04:15:25;100078.91;;;25.35;45.55
34370;BME280;20635;55.812;37.560;2023-06-10T04:17:51;100077.25;;;25.34;45.59
34370;BME280;20635;55.812;37.560;2023-06-10T04:20:20;100076.13;;;25.35;45.53
34370;BME280;20635;55.812;37.560;2023-06-10T04:22:47;100078.09;;;25.35;45.57
34370;BME280;20635;55.812;37.560;2023-06-10T04:25:13;100076.94;;;25.36;45.61
34370;BME280;20635;55.812;37.560;2023-06-10T04:27:40;100070.50;;;25.35;45.59
34370;BME280;20635;55.812;37.560;2023-06-10T04:30:06;100085.34;;;25.36;45.67
34370;BME280;20635;55.812;37.560;2023-06-10T04:32:34;100078.91;;;25.35;45.57
34370;BME280;20635;55.812;37.560;2023-06-10T04:35:00;100084.53;;;25.35;45.65
34370;BME280;20635;55.812;37.560;2023-06-10T04:37:27;100072.50;;;25.35;45.44
34370;BME280;20635;55.812;37.560;2023-06-10T04:39:54;100084.53;;;25.35;45.65
34370;BME280;20635;55.812;37.560;2023-06-10T04:42:20;100087.34;;;25.35;45.59
34370;BME280;20635;55.812;37.560;2023-06-10T04:44:45;100087.34;;;25.35;45.54
34370;BME280;20635;55.812;37.560;2023-06-10T04:47:11;100087.34;;;25.35;45.54
34370;BME280;20635;55.812;37.560;2023-06-10T04:49:37;100096.56;;;25.36;45.48
34370;BME280;20635;55.812;37.560;2023-06-10T04:52:03;100095.75;;;25.35;45.64
34370;BME280;20635;55.812;37.560;2023-06-10T04:54:32;100094.94;;;25.35;45.53
34370;BME280;20635;55.812;37.560;2023-06-10T04:56:58;100092.94;;;25.35;45.36
34370;BME280;20635;55.812;37.560;2023-06-10T04:59:25;100104.47;;;25.34;45.44
34370;BME280;20635;55.812;37.560;2023-06-10T05:01:51;100104.47;;;25.34;45.44
34370;BME280;20635;55.812;37.560;2023-06-10T05:04:17;100101.66;;;25.34;45.49
34370;BME280;20635;55.812;37.560;2023-06-10T05:06:42;100108.09;;;25.34;45.41
34370;BME280;20635;55.812;37.560;2023-06-10T05:09:09;100105.63;;;25.33;45.32
34370;BME280;20635;55.812;37.560;2023-06-10T05:11:35;100106.44;;;25.33;nan
34370;BME280;20635;55.812;37.560;2023-06-10T05:14:00;100111.25;;;25.33;45.43
34370;BME280;20635;55.812;37.560;2023-06-10T05:16:26;100118.50;;;25.34;45.52
34370;BME280;20635;55.812;37.560;2023-06-10T05:18:53;100119.31;;;25.34;45.37
34370;BME280;20635;55.812;37.560;2023-06-10T05:21:18;100109.25;;;25.33;45.45
34370;BME280;20635;55.812;37.560;2023-06-10T05:23:44;100115.69;;;25.34;45.47
34370;BME280;20635;55.812;37.560;2023-06-10T05:26:10;100115.38;;;25.35;45.31
34370;BME280;20635;55.812;37.560;2023-06-10T05:28:36;100115.38;;;25.35;45.35
34370;BME280;20635;55.812;37.560;2023-06-10T05:31:01;100114.88;;;25.33;45.37
34370;BME280;20635;55.812;37.560;2023-06-10T05:33:28;100118.50;;;25.34;45.32
34370;BME280;20635;55.812;37.560;2023-06-10T05:35:54;100114.88;;;25.33;45.42
34370;BME280;20635;55.812;37.560;2023-06-10T05:38:19;100126.09;;;25.33;45.38
34370;BME280;20635;55.812;37.560;2023-06-10T05:40:45;100129.72;;;25.34;45.23
34370;BME280;20635;55.812;37.560;2023-06-10T05:43:11;100127.75;;;25.34;45.35
34370;BME280;20635;55.812;37.560;2023-06-10T05:45:37;100126.91;;;25.34;45.27
34370;BME280;20635;55.812;37.560;2023-06-10T05:48:03;100129.72;;;25.34;45.24
34370;BME280;20635;55.812;37.560;2023-06-10T05:50:28;100129.72;;;25.34;45.39
34370;BME280;20635;55.812;37.560;2023-06-10T05:52:54;100132.22;;;25.35;45.29
34370;BME280;20635;55.812;37.560;2023-06-10T05:55:20;100128.59;;;25.35;45.10
34370;BME280;20635;55.812;37.560;2023-06-10T05:57:46;100135.03;;;25.35;45.19
34370;BME280;20635;55.812;37.560;2023-06-10T06:00:11;100130.53;;;25.34;45.05
34370;BME280;20635;55.812;37.560;2023-06-10T06:02:41;100137.00;;;25.35;45.10
34370;BME280;20635;55.812;37.560;2023-06-10T06:05:06;100128.59;;;25.35;44.86
34370;BME280;20635;55.812;37.560;2023-06-10T06:07:34;100130.53;;;25.34;44.95
34370;BME280;20635;55.812;37.560;2023-06-10T06:10:00;100136.16;;;25.34;44.88
34370;BME280;20635;55.812;37.560;2023-06-10T06:12:25;100131.69;;;25.33;44.91
34370;BME280;20635;55.812;37.560;2023-06-10T06:14:51;100139.28;;;25.33;44.58
34370;BME280;20635;55.812;37.560;2023-06-10T06:17:17;100137.66;;;25.32;44.66
34370;BME280;20635;55.812;37.560;2023-06-10T06:19:42;100134.84;;;25.32;44.62
34370;BME280;20635;55.812;37.560;2023-06-10T06:22:08;100142.44;;;25.31;44.64
34370;BME280;20635;55.812;37.560;2023-06-10T06:24:34;100142.44;;;25.31;44.40
34370;BME280;20635;55.812;37.560;2023-06-10T06:27:00;100141.91;;;25.29;44.46
34370;BME280;20635;55.812;37.560;2023-06-10T06:29:26;100149.50;;;25.28;44.52
34370;BME280;20635;55.812;37.560;2023-06-10T06:31:51;100139.25;;;25.24;44.20
34370;BME280;20635;55.812;37.560;2023-06-10T06:34:17;100146.63;;;25.20;43.73
34370;BME280;20635;55.812;37.560;2023-06-10T06:36:42;100141.69;;;25.17;43.75
34370;BME280;20635;55.812;37.560;2023-06-10T06:39:11;100139.19;;;25.15;43.50
34370;BME280;20635;55.812;37.560;2023-06-10T06:41:37;100138.69;;;25.13;43.85
34370;BME280;20635;55.812;37.560;2023-06-10T06:44:03;100142.94;;;25.11;43.40
34370;BME280;20635;55.812;37.560;2023-06-10T06:46:36;100147.25;;;25.08;43.41
34370;BME280;20635;55.812;37.560;2023-06-10T06:49:01;100156.25;;;25.05;43.36
34370;BME280;20635;55.812;37.560;2023-06-10T06:51:27;100156.88;;;25.02;43.06
34370;BME280;20635;55.812;37.560;2023-06-10T06:53:54;100153.38;;;24.96;42.72
34370;BME280;20635;55.812;37.560;2023-06-10T06:56:23;100162.13;;;24.95;42.61
34370;BME280;20635;55.812;37.560;2023-06-10T06:58:49;100156.81;;;24.93;42.85
34370;BME280;20635;55.812;37.560;2023-06-10T07:01:15;100165.88;;;24.90;42.69
34370;BME280;20635;55.812;37.560;2023-06-10T07:03:41;100162.56;;;24.88;42.35
34370;BME280;20635;55.812;37.560;2023-06-10T07:06:06;100165.69;;;24.87;42.57
34370;BME280;20635;55.812;37.560;2023-06-10T07:08:32;100169.94;;;24.84;42.45
34370;BME280;20635;55.812;37.560;2023-06-10T07:10:58;100171.09;;;24.83;42.15
34370;BME280;20635;55.812;37.560;2023-06-10T07:13:23;100166.97;;;24.80;42.58
34370;BME280;20635;55.812;37.560;2023-06-10T07:15:49;100172.88;;;24.79;42.38
34370;BME280;20635;55.812;37.560;2023-06-10T07:18:15;100171.84;;;24.75;42.44
34370;BME280;20635;55.812;37.560;2023-06-10T07:20:42;100178.09;;;24.72;42.26
34370;BME280;20635;55.812;37.560;2023-06-10T07:23:08;100171.66;;;24.71;42.33
34370;BME280;20635;55.812;37.560;2023-06-10T07:25:34;100172.78;;;24.70;42.28
34370;BME280;20635;55.812;37.560;2023-06-10T07:27:59;100175.91;;;24.69;42.21
34370;BME280;20635;55.812;37.560;2023-06-10T07:30:25;100179.88;;;24.68;42.26
34370;BME280;20635;55.812;37.560;2023-06-10T07:32:51;100188.59;;;24.66;42.11
34370;BME280;20635;55.812;37.560;2023-06-10T07:35:16;100184.47;;;24.64;41.86
34370;BME280;20635;55.812;37.560;2023-06-10T07:37:42;100185.59;;;24.63;42.04
34370;BME280;20635;55.812;37.560;2023-06-10T07:40:08;100186.72;;;24.62;42.14
34370;BME280;20635;55.812;37.560;2023-06-10T07:42:34;100193.19;;;24.62;41.97
34370;BME280;20635;55.812;37.560;2023-06-10T07:45:00;100191.50;;;24.61;42.09
34370;BME280;20635;55.812;37.560;2023-06-10T07:47:25;100191.50;;;24.61;42.15
34370;BME280;20635;55.812;37.560;2023-06-10T07:49:51;100186.72;;;24.62;42.19
34370;BME280;20635;55.812;37.560;2023-06-10T07:52:17;100188.41;;;24.63;42.33
34370;BME280;20635;55.812;37.560;2023-06-10T07:54:42;100194.84;;;24.63;42.15
34370;BME280;20635;55.812;37.560;2023-06-10T07:57:08;100198.78;;;24.62;42.09
34370;BME280;20635;55.812;37.560;2023-06-10T07:59:34;100198.78;;;24.62;42.31
34370;BME280;20635;55.812;37.560;2023-06-10T08:01:59;100198.78;;;24.62;42.19
34370;BME280;20635;55.812;37.560;2023-06-10T08:04:25;100202.41;;;24.63;42.16
34370;BME280;20635;55.812;37.560;2023-06-10T08:06:51;100200.44;;;24.63;42.54
34370;BME280;20635;55.812;37.560;2023-06-10T08:09:17;100206.88;;;24.64;42.30
34370;BME280;20635;55.812;37.560;2023-06-10T08:11:43;100208.84;;;24.63;42.33
34370;BME280;20635;55.812;37.560;2023-06-10T08:14:09;100211.66;;;24.63;42.51
34370;BME280;20635;55.812;37.560;2023-06-10T08:16:35;100205.22;;;24.63;42.48
34370;BME280;20635;55.812;37.560;2023-06-10T08:19:01;100200.44;;;24.63;42.43
34370;BME280;20635;55.812;37.560;2023-06-10T08:21:26;100206.06;;;24.63;42.18
34370;BME280;20635;55.812;37.560;2023-06-10T08:23:53;100220.06;;;24.63;42.30
34370;BME280;20635;55.812;37.560;2023-06-10T08:26:19;100212.47;;;24.64;42.31
34370;BME280;20635;55.812;37.560;2023-06-10T08:28:45;100206.06;;;24.63;42.42
34370;BME280;20635;55.812;37.560;2023-06-10T08:31:11;100212.47;;;24.64;42.50
34370;BME280;20635;55.812;37.560;2023-06-10T08:33:36;100220.88;;;24.64;42.29
34370;BME280;20635;55.812;37.560;2023-06-10T08:36:02;100229.28;;;24.64;42.18
34370;BME280;20635;55.812;37.560;2023-06-10T08:38:28;100220.88;;;24.64;42.40
34370;BME280;20635;55.812;37.560;2023-06-10T08:40:56;100229.28;;;24.64;42.40
34370;BME280;20635;55.812;37.560;2023-06-10T08:45:50;100224.50;;;24.64;42.28
34370;BME280;20635;55.812;37.560;2023-06-10T08:48:19;100234.91;;;24.64;42.07
34370;BME280;20635;55.812;37.560;2023-06-10T08:50:44;100225.66;;;24.63;42.27
34370;BME280;20635;55.812;37.560;2023-06-10T08:53:10;100226.50;;;24.64;42.25
34370;BME280;20635;55.812;37.560;2023-06-10T08:55:41;100226.50;;;24.64;42.24
34370;BME280;20635;55.812;37.560;2023-06-10T08:58:09;100230.94;;;24.65;42.27
34370;BME280;20635;55.812;37.560;2023-06-10T09:00:36;100235.72;;;24.64;42.19
34370;BME280;20635;55.812;37.560;2023-06-10T09:03:04;100236.53;;;24.65;42.23
34370;BME280;20635;55.812;37.560;2023-06-10T09:05:32;100235.72;;;24.64;42.07
34370;BME280;20635;55.812;37.560;2023-06-10T09:07:58;100244.97;;;24.65;42.16
34370;BME280;20635;55.812;37.560;2023-06-10T09:10:25;100237.38;;;24.65;42.06
34370;BME280;20635;55.812;37.560;2023-06-10T09:12:51;100243.31;;;24.64;41.98
34370;BME280;20635;55.812;37.560;2023-06-10T09:15:17;100243.63;;;24.62;41.67
34370;BME280;20635;55.812;37.560;2023-06-10T09:17:43;100229.63;;;24.62;41.66
34370;BME280;20635;55.812;37.560;2023-06-10T09:20:09;100243.63;;;24.62;41.68
34370;BME280;20635;55.812;37.560;2023-06-10T09:22:34;100243.09;;;24.60;41.39
34370;BME280;20635;55.812;37.560;2023-06-10T09:25:05;100245.91;;;24.60;41.38
34370;BME280;20635;55.812;37.560;2023-06-10T09:27:31;100241.44;;;24.59;41.34
34370;BME280;20635;55.812;37.560;2023-06-10T09:29:59;100237.81;;;24.59;41.38
34370;BME280;20635;55.812;37.560;2023-06-10T09:32:25;100230.56;;;24.58;41.19
34370;BME280;20635;55.812;37.560;2023-06-10T09:34:52;100237.28;;;24.57;41.16
34370;BME280;20635;55.812;37.560;2023-06-10T09:37:21;100230.84;;;24.56;41.09
34370;BME280;20635;55.812;37.560;2023-06-10T09:40:03;100231.69;;;24.57;41.13
34370;BME280;20635;55.812;37.560;2023-06-10T09:42:33;100235.63;;;24.55;41.04
34370;BME280;20635;55.812;37.560;2023-06-10T09:45:04;100239.25;;;24.56;40.84
34370;BME280;20635;55.812;37.560;2023-06-10T09:47:30;100244.03;;;24.55;40.95
34370;BME280;20635;55.812;37.560;2023-06-10T09:49:56;100246.84;;;24.55;40.87
34370;BME280;20635;55.812;37.560;2023-06-10T09:52:25;100252.78;;;24.54;40.40
34370;BME280;20635;55.812;37.560;2023-06-10T09:54:52;100253.06;;;24.52;40.61
34370;BME280;20635;55.812;37.560;2023-06-10T09:57:19;100247.78;;;24.51;40.39
34370;BME280;20635;55.812;37.560;2023-06-10T09:59:45;100255.03;;;24.52;40.23
34370;BME280;20635;55.812;37.560;2023-06-10T10:02:14;100256.19;;;24.51;40.34
34370;BME280;20635;55.812;37.560;2023-06-10T10:04:41;100243.66;;;24.48;40.18
34370;BME280;20635;55.812;37.560;2023-06-10T10:07:08;100252.06;;;24.48;40.10
34370;BME280;20635;55.812;37.560;2023-06-10T10:09:38;100247.91;;;24.46;40.26
34370;BME280;20635;55.812;37.560;2023-06-10T10:12:06;100244.78;;;24.47;40.10
34370;BME280;20635;55.812;37.560;2023-06-10T10:14:34;100242.28;;;24.46;39.97
34370;BME280;20635;55.812;37.560;2023-06-10T10:17:01;100254.66;;;24.45;39.94
34370;BME280;20635;55.812;37.560;2023-06-10T10:19:29;100251.84;;;24.45;39.95
34370;BME280;20635;55.812;37.560;2023-06-10T10:21:59;100253.81;;;24.44;39.85
34370;BME280;20635;55.812;37.560;2023-06-10T10:24:30;100255.25;;;24.42;39.71
34370;BME280;20635;55.812;37.560;2023-06-10T10:26:59;100252.78;;;24.40;39.55
34370;BME280;20635;55.812;37.560;2023-06-10T10:29:30;100256.75;;;24.39;39.11
34370;BME280;20635;55.812;37.560;2023-06-10T10:31:56;100246.66;;;24.38;39.16
34370;BME280;20635;55.812;37.560;2023-06-10T10:34:37;100252.56;;;24.37;39.01
34370;BME280;20635;55.812;37.560;2023-06-10T10:37:06;100254.84;;;24.35;38.84
34370;BME280;20635;55.812;37.560;2023-06-10T10:39:33;100245.59;;;24.34;39.04
34370;BME280;20635;55.812;37.560;2023-06-10T10:41:59;100252.34;;;24.33;39.06
34370;BME280;20635;55.812;37.560;2023-06-10T10:44:25;100247.88;;;24.32;38.74
34370;BME280;20635;55.812;37.560;2023-06-10T10:46:52;100252.66;;;24.32;38.82
34370;BME280;20635;55.812;37.560;2023-06-10T10:49:19;100243.44;;;24.31;38.84
34370;BME280;20635;55.812;37.560;2023-06-10T10:51:58;100244.56;;;24.30;38.95
34370;BME280;20635;55.812;37.560;2023-06-10T10:54:28;100237.00;;;24.30;38.78
34370;BME280;20635;55.812;37.560;2023-06-10T10:59:43;100236.19;;;24.30;38.91
34370;BME280;20635;55.812;37.560;2023-06-10T11:02:08;100243.44;;;24.31;39.16
34370;BME280;20635;55.812;37.560;2023-06-10T11:04:34;100237.00;;;24.30;38.83
34370;BME280;20635;55.812;37.560;2023-06-10T11:07:06;100242.28;;;24.32;39.09
34370;BME280;20635;55.812;37.560;2023-06-10T11:09:33;100245.09;;;24.32;38.97
34370;BME280;20635;55.812;37.560;2023-06-10T11:11:58;100245.09;;;24.32;39.23
34370;BME280;20635;55.812;37.560;2023-06-10T11:14:28;100248.72;;;24.33;39.21
34370;BME280;20635;55.812;37.560;2023-06-10T11:16:54;100245.91;;;24.33;39.23
34370;BME280;20635;55.812;37.560;2023-06-10T11:19:32;100241.97;;;24.34;39.57
34370;BME280;20635;55.812;37.560;2023-06-10T11:21:58;100234.38;;;24.34;39.44
34370;BME280;20635;55.812;37.560;2023-06-10T11:24:25;100241.38;;;24.37;39.59
34370;BME280;20635;55.812;37.560;2023-06-10T11:26:51;100241.38;;;24.37;39.78
34370;BME280;20635;55.812;37.560;2023-06-10T11:29:17;100248.34;;;24.39;39.62
34370;BME280;20635;55.812;37.560;2023-06-10T11:31:44;100244.69;;;24.39;39.63
34370;BME280;20635;55.812;37.560;2023-06-10T11:34:10;100247.19;;;24.40;39.97
34370;BME280;20635;55.812;37.560;2023-06-10T11:36:37;100237.31;;;24.43;39.79
34370;BME280;20635;55.812;37.560;2023-06-10T11:39:06;100249.88;;;24.45;39.91
34370;BME280;20635;55.812;37.560;2023-06-10T11:41:32;100247.91;;;24.46;40.06
34370;BME280;20635;55.812;37.560;2023-06-10T11:44:02;100247.56;;;24.47;39.95
34370;BME280;20635;55.812;37.560;2023-06-10T11:46:28;100250.91;;;24.49;40.45
34370;BME280;20635;55.812;37.560;2023-06-10T11:48:57;100259.81;;;24.51;40.33
34370;BME280;20635;55.812;37.560;2023-06-10T11:51:27;100250.25;;;24.52;40.37
34370;BME280;20635;55.812;37.560;2023-06-10T11:53:54;100246.00;;;24.55;40.32
34370;BME280;20635;55.812;37.560;2023-06-10T11:56:23;100248.50;;;24.57;40.48
34370;BME280;20635;55.812;37.560;2023-06-10T11:59:05;100249.03;;;24.59;40.54
34370;BME280;20635;55.812;37.560;2023-06-10T12:01:33;100255.13;;;24.61;40.71
34370;BME280;20635;55.812;37.560;2023-06-10T12:04:00;100253.16;;;24.61;40.70
34370;BME280;20635;55.812;37.560;2023-06-10T12:06:26;100250.88;;;24.63;40.68
34370;BME280;20635;55.812;37.560;2023-06-10T12:08:53;100250.56;;;24.65;40.77
34370;BME280;20635;55.812;37.560;2023-06-10T12:11:19;100257.00;;;24.65;40.79
34370;BME280;20635;55.812;37.560;2023-06-10T12:13:46;100255.53;;;24.68;40.90
34370;BME280;20635;55.812;37.560;2023-06-10T12:16:16;100260.00;;;24.69;40.88
34370;BME280;20635;55.812;37.560;2023-06-10T12:18:46;100261.34;;;24.71;40.86
34370;BME280;20635;55.812;37.560;2023-06-10T12:21:23;100270.59;;;24.72;40.97
34370;BME280;20635;55.812;37.560;2023-06-10T12:26:44;100264.34;;;24.75;40.82
34370;BME280;20635;55.812;37.560;2023-06-10T12:36:55;100266.41;;;24.83;40.95
34370;BME280;20635;55.812;37.560;2023-06-10T12:39:21;100261.63;;;24.84;41.25
34370;BME280;20635;55.812;37.560;2023-06-10T12:41:47;100261.00;;;24.87;41.06
34370;BME280;20635;55.812;37.560;2023-06-10T12:44:13;100269.09;;;24.88;41.10
34370;BME280;20635;55.812;37.560;2023-06-10T12:46:39;100250.81;;;24.91;40.99
34370;BME280;20635;55.812;37.560;2023-06-10T12:49:05;100254.44;;;24.91;41.24
34370;BME280;20635;55.812;37.560;2023-06-10T12:51:30;100251.31;;;24.93;41.12
34370;BME280;20635;55.812;37.560;2023-06-10T12:53:56;100251.84;;;24.95;41.04
34370;BME280;20635;55.812;37.560;2023-06-10T12:56:22;100250.38;;;24.97;41.41
34370;BME280;20635;55.812;37.560;2023-06-10T12:58:52;100247.56;;;24.97;41.32
34370;BME280;20635;55.812;37.560;2023-06-10T13:01:17;100251.72;;;25.00;41.16
34370;BME280;20635;55.812;37.560;2023-06-10T13:03:43;100258.16;;;25.00;41.30
34370;BME280;20635;55.812;37.560;2023-06-10T13:06:09;100255.84;;;25.02;41.38